sensor_id;sensor_type;location;lat;lon;timestamp;pressure;altitude;pressure_sealevel;temperature;humidity
5879;BME280;2965;42.640;23.370;2023-04-22T04:00:48;94235.25;;;7.28;100.00
5879;BME280;2965;42.640;23.370;2023-04-22T04:03:13;94231.31;;;7.41;100.00
5879;BME280;2965;42.640;23.370;2023-04-22T04:05:39;94242.63;;;7.48;100.00
5879;BME280;2965;42.640;23.370;2023-04-22T04:08:04;94239.84;;;7.57;100.00
5879;BME280;2965;42.640;23.370;2023-04-22T04:10:30;94237.88;;;7.59;100.00
5879;BME280;2965;42.640;23.370;2023-04-22T04:12:58;94231.63;;;7.69;100.00
5879;BME280;2965;42.640;23.370;2023-04-22T04:15:23;94242.97;;;7.76;100.00
5879;BME280;2965;42.640;23.370;2023-04-22T04:17:49;94249.75;;;7.85;100.00
5879;BME280;2965;42.640;23.370;2023-04-22T04:20:14;94239.28;;;7.93;100.00
5879;BME280;2965;42.640;23.370;2023-04-22T04:22:40;94249.53;;;7.95;100.00
5879;BME280;2965;42.640;23.370;2023-04-22T04:25:06;94246.22;;;8.01;100.00
5879;BME280;2965;42.640;23.370;2023-04-22T04:27:32;94240.78;;;7.88;100.00
5879;BME280;2965;42.640;23.370;2023-04-22T04:29:57;94245.75;;;7.74;100.00
5879;BME280;2965;42.640;23.370;2023-04-22T04:32:23;94244.13;;;7.73;100.00
5879;BME280;2965;42.640;23.370;2023-04-22T04:34:49;94249.56;;;7.87;100.00
5879;BME280;2965;42.640;23.370;2023-04-22T04:37:15;94261.28;;;7.91;100.00
5879;BME280;2965;42.640;23.370;2023-04-22T04:39:41;94254.34;;;8.06;100.00
5879;BME280;2965;42.640;23.370;2023-04-22T04:42:07;94264.41;;;8.09;100.00
5879;BME280;2965;42.640;23.370;2023-04-22T04:44:34;94266.88;;;8.25;100.00
5879;BME280;2965;42.640;23.370;2023-04-22T04:47:00;94272.38;;;8.30;100.00
5879;BME280;2965;42.640;23.370;2023-04-22T04:49:25;94273.66;;;8.34;100.00
5879;BME280;2965;42.640;23.370;2023-04-22T04:51:51;94279.75;;;8.50;100.00
5879;BME280;2965;42.640;23.370;2023-04-22T04:54:16;94283.47;;;8.70;100.00
5879;BME280;2965;42.640;23.370;2023-04-22T04:56:42;94283.22;;;8.80;100.00
5879;BME280;2965;42.640;23.370;2023-04-22T04:59:10;94290.91;;;8.81;100.00
5879;BME280;2965;42.640;23.370;2023-04-22T05:01:35;94284.22;;;8.94;100.00
5879;BME280;2965;42.640;23.370;2023-04-22T05:04:01;94291.97;;;9.02;100.00
5879;BME280;2965;42.640;23.370;2023-04-22T05:06:26;94289.56;;;9.15;100.00
5879;BME280;2965;42.640;23.370;2023-04-22T05:08:52;94296.94;;;9.26;100.00
5879;BME280;2965;42.640;23.370;2023-04-22T05:11:17;94296.88;;;9.34;100.00
5879;BME280;2965;42.640;23.370;2023-04-22T05:13:43;94293.16;;;9.44;100.00
5879;BME280;2965;42.640;23.370;2023-04-22T05:16:08;94290.28;;;9.53;100.00
5879;BME280;2965;42.640;23.370;2023-04-22T05:18:33;94297.81;;;9.63;100.00
5879;BME280;2965;42.640;23.370;2023-04-22T05:20:59;94292.84;;;9.68;100.00
5879;BME280;2965;42.640;23.370;2023-04-22T05:23:27;94295.09;;;9.71;100.00
5879;BME280;2965;42.640;23.370;2023-04-22T05:25:54;94294.03;;;9.66;100.00
5879;BME280;2965;42.640;23.370;2023-04-22T05:28:19;94290.97;;;9.62;100.00
5879;BME280;2965;42.640;23.370;2023-04-22T05:30:44;94299.44;;;9.64;100.00
5879;BME280;2965;42.640;23.370;2023-04-22T05:33:10;94299.44;;;9.49;100.00
5879;BME280;2965;42.640;23.370;2023-04-22T05:35:35;94293.78;;;9.46;100.00
5879;BME280;2965;42.640;23.370;2023-04-22T05:38:01;94298.91;;;9.54;100.00
5879;BME280;2965;42.640;23.370;2023-04-22T05:40:27;94300.69;;;9.68;100.00
5879;BME280;2965;42.640;23.370;2023-04-22T05:42:52;94302.78;;;9.58;100.00
5879;BME280;2965;42.640;23.370;2023-04-22T05:45:18;94304.03;;;9.62;100.00
5879;BME280;2965;42.640;23.370;2023-04-22T05:47:43;94305.66;;;9.63;100.00
5879;BME280;2965;42.640;23.370;2023-04-22T05:50:09;94299.69;;;9.69;100.00
5879;BME280;2965;42.640;23.370;2023-04-22T05:52:34;94308.50;;;9.83;100.00
5879;BME280;2965;42.640;23.370;2023-04-22T05:54:59;94304.78;;;9.92;100.00
5879;BME280;2965;42.640;23.370;2023-04-22T05:57:25;94305.06;;;9.82;100.00
5879;BME280;2965;42.640;23.370;2023-04-22T05:59:51;94298.53;;;9.72;100.00
5879;BME280;2965;42.640;23.370;2023-04-22T11:32:20;94229.41;;;18.80;48.54
5879;BME280;2965;42.640;23.370;2023-04-22T11:34:50;94229.50;;;18.39;51.63
5879;BME280;2965;42.640;23.370;2023-04-22T11:37:18;94230.41;;;18.17;52.68
5879;BME280;2965;42.640;23.370;2023-04-22T11:39:43;94232.69;;;18.25;52.98
5879;BME280;2965;42.640;23.370;2023-04-22T11:42:11;94232.59;;;18.99;57.26
5879;BME280;2965;42.640;23.370;2023-04-22T11:44:38;94233.69;;;19.36;55.98
5879;BME280;2965;42.640;23.370;2023-04-22T11:47:03;94225.09;;;18.74;55.80
5879;BME280;2965;42.640;23.370;2023-04-22T11:49:29;94242.66;;;19.13;54.51
5879;BME280;2965;42.640;23.370;2023-04-22T11:51:57;94245.88;;;19.54;53.00
5879;BME280;2965;42.640;23.370;2023-04-22T11:54:32;94241.63;;;19.70;51.31
5879;BME280;2965;42.640;23.370;2023-04-22T11:57:06;94241.41;;;19.99;51.74
5879;BME280;2965;42.640;23.370;2023-04-22T11:59:33;94243.03;;;20.00;54.99
5879;BME280;2965;42.640;23.370;2023-04-22T12:01:58;94251.34;;;19.64;48.87
5879;BME280;2965;42.640;23.370;2023-04-22T12:04:23;94247.03;;;20.02;53.07
5879;BME280;2965;42.640;23.370;2023-04-22T12:06:50;94250.38;;;20.96;52.73
5879;BME280;2965;42.640;23.370;2023-04-22T12:09:16;94254.91;;;21.32;47.93
5879;BME280;2965;42.640;23.370;2023-04-22T12:11:44;94261.00;;;20.96;49.68
5879;BME280;2965;42.640;23.370;2023-04-22T12:14:10;94266.31;;;20.41;52.68
5879;BME280;2965;42.640;23.370;2023-04-22T12:16:40;94258.63;;;20.18;52.55
5879;BME280;2965;42.640;23.370;2023-04-22T12:19:06;94252.81;;;20.21;53.95
5879;BME280;2965;42.640;23.370;2023-04-22T12:21:32;94270.75;;;20.58;53.86
5879;BME280;2965;42.640;23.370;2023-04-22T12:23:59;94258.84;;;20.60;50.92
5879;BME280;2965;42.640;23.370;2023-04-22T12:26:27;94257.22;;;21.24;52.45
5879;BME280;2965;42.640;23.370;2023-04-22T12:28:54;94257.94;;;20.77;50.05
5879;BME280;2965;42.640;23.370;2023-04-22T12:31:21;94259.81;;;19.83;53.15
5879;BME280;2965;42.640;23.370;2023-04-22T12:33:46;94250.53;;;19.64;52.01
5879;BME280;2965;42.640;23.370;2023-04-22T12:36:12;94262.25;;;20.56;52.95
5879;BME280;2965;42.640;23.370;2023-04-22T12:38:37;94266.66;;;21.36;51.05
5879;BME280;2965;42.640;23.370;2023-04-22T12:41:04;94256.16;;;21.25;48.75
5879;BME280;2965;42.640;23.370;2023-04-22T12:43:30;94259.38;;;20.13;49.25
5879;BME280;2965;42.640;23.370;2023-04-22T12:45:57;94255.44;;;19.94;51.80
5879;BME280;2965;42.640;23.370;2023-04-22T12:48:23;94262.16;;;19.07;54.84
5879;BME280;2965;42.640;23.370;2023-04-22T12:50:48;94259.38;;;18.52;55.33
5879;BME280;2965;42.640;23.370;2023-04-22T12:53:14;94255.41;;;18.09;54.92
5879;BME280;2965;42.640;23.370;2023-04-22T12:55:40;94254.13;;;18.69;58.02
5879;BME280;2965;42.640;23.370;2023-04-22T12:58:05;94256.78;;;18.40;57.75
5879;BME280;2965;42.640;23.370;2023-04-22T13:00:31;94259.03;;;17.91;60.82
5879;BME280;2965;42.640;23.370;2023-04-22T13:02:56;94248.59;;;17.84;63.38
5879;BME280;2965;42.640;23.370;2023-04-22T13:05:23;94262.13;;;18.57;71.65
5879;BME280;2965;42.640;23.370;2023-04-22T13:07:49;94248.81;;;18.85;68.59
5879;BME280;2965;42.640;23.370;2023-04-22T13:10:15;94247.22;;;19.18;63.68
5879;BME280;2965;42.640;23.370;2023-04-22T13:12:41;94253.81;;;19.15;61.44
5879;BME280;2965;42.640;23.370;2023-04-22T13:15:08;94243.53;;;19.58;66.31
5879;BME280;2965;42.640;23.370;2023-04-22T13:17:35;94242.66;;;20.40;56.54
5879;BME280;2965;42.640;23.370;2023-04-22T13:20:01;94242.00;;;20.50;55.68
5879;BME280;2965;42.640;23.370;2023-04-22T13:22:28;94247.63;;;20.58;54.26
5879;BME280;2965;42.640;23.370;2023-04-22T13:24:54;94247.38;;;20.87;49.88
5879;BME280;2965;42.640;23.370;2023-04-22T13:27:19;94246.31;;;21.57;53.97
5879;BME280;2965;42.640;23.370;2023-04-22T13:29:44;94240.81;;;21.74;52.83
5879;BME280;2965;42.640;23.370;2023-04-22T14:37:12;94231.63;;;21.55;42.52
5879;BME280;2965;42.640;23.370;2023-04-22T14:39:38;94233.69;;;21.42;42.12
5879;BME280;2965;42.640;23.370;2023-04-22T14:42:03;94231.31;;;22.04;42.14
5879;BME280;2965;42.640;23.370;2023-04-22T14:44:29;94240.25;;;22.35;43.86
5879;BME280;2965;42.640;23.370;2023-04-22T14:46:55;94233.09;;;22.40;44.46
5879;BME280;2965;42.640;23.370;2023-04-22T14:49:20;94234.44;;;22.69;42.38
5879;BME280;2965;42.640;23.370;2023-04-22T14:51:47;94235.78;;;22.86;40.49
5879;BME280;2965;42.640;23.370;2023-04-22T14:54:12;94236.81;;;22.50;41.02
5879;BME280;2965;42.640;23.370;2023-04-22T14:56:38;94233.59;;;22.37;43.62
5879;BME280;2965;42.640;23.370;2023-04-22T14:59:03;94239.25;;;21.83;40.78
5879;BME280;2965;42.640;23.370;2023-04-22T15:01:30;94234.72;;;21.36;46.06
5879;BME280;2965;42.640;23.370;2023-04-22T15:03:56;94240.97;;;21.57;41.75
5879;BME280;2965;42.640;23.370;2023-04-22T15:06:21;94240.06;;;21.04;42.09
5879;BME280;2965;42.640;23.370;2023-04-22T15:08:47;94232.16;;;20.77;43.37
5879;BME280;2965;42.640;23.370;2023-04-22T15:11:12;94231.84;;;20.47;45.12
5879;BME280;2965;42.640;23.370;2023-04-22T15:13:37;94231.28;;;19.96;43.73
5879;BME280;2965;42.640;23.370;2023-04-22T15:16:03;94228.31;;;20.14;44.68
5879;BME280;2965;42.640;23.370;2023-04-22T15:18:29;94231.84;;;20.47;47.84
5879;BME280;2965;42.640;23.370;2023-04-22T15:20:54;94230.88;;;21.17;44.31
5879;BME280;2965;42.640;23.370;2023-04-22T15:23:19;94230.72;;;21.81;42.82
5879;BME280;2965;42.640;23.370;2023-04-22T15:25:45;94233.44;;;21.97;41.78
5879;BME280;2965;42.640;23.370;2023-04-22T15:28:10;94229.84;;;22.28;44.03
5879;BME280;2965;42.640;23.370;2023-04-22T15:30:36;94228.00;;;22.44;40.62
5879;BME280;2965;42.640;23.370;2023-04-22T15:33:01;94226.59;;;22.16;43.76
5879;BME280;2965;42.640;23.370;2023-04-22T15:35:29;94229.03;;;20.85;43.66
5879;BME280;2965;42.640;23.370;2023-04-22T15:37:56;94229.56;;;20.06;45.61
5879;BME280;2965;42.640;23.370;2023-04-22T15:40:22;94234.72;;;19.52;48.16
5879;BME280;2965;42.640;23.370;2023-04-22T15:42:47;94232.28;;;19.12;50.87
5879;BME280;2965;42.640;23.370;2023-04-22T15:45:13;94234.25;;;19.00;51.17
5879;BME280;2965;42.640;23.370;2023-04-22T15:47:39;94232.91;;;18.69;52.38
5879;BME280;2965;42.640;23.370;2023-04-22T15:50:06;94242.56;;;18.75;55.88
5879;BME280;2965;42.640;23.370;2023-04-22T15:52:33;94237.31;;;18.63;54.08
5879;BME280;2965;42.640;23.370;2023-04-22T15:54:59;94248.13;;;18.73;56.24
5879;BME280;2965;42.640;23.370;2023-04-22T15:57:26;94248.69;;;18.75;57.80
5879;BME280;2965;42.640;23.370;2023-04-22T15:59:52;94250.28;;;19.27;64.95
5879;BME280;2965;42.640;23.370;2023-04-22T16:02:17;94252.41;;;19.30;57.32
5879;BME280;2965;42.640;23.370;2023-04-22T16:04:43;94258.44;;;19.42;50.89
5879;BME280;2965;42.640;23.370;2023-04-22T16:07:08;94257.28;;;19.55;54.66
5879;BME280;2965;42.640;23.370;2023-04-22T16:09:34;94262.63;;;19.21;53.69
5879;BME280;2965;42.640;23.370;2023-04-22T16:12:00;94258.56;;;18.97;51.88
5879;BME280;2965;42.640;23.370;2023-04-22T16:14:26;94262.97;;;18.74;53.90
5879;BME280;2965;42.640;23.370;2023-04-22T16:16:51;94277.03;;;18.63;56.02
5879;BME280;2965;42.640;23.370;2023-04-22T16:19:17;94271.00;;;18.22;57.29
5879;BME280;2965;42.640;23.370;2023-04-22T16:21:42;94271.53;;;18.07;59.02
5879;BME280;2965;42.640;23.370;2023-04-22T16:24:08;94277.78;;;17.89;61.65
5879;BME280;2965;42.640;23.370;2023-04-22T16:26:33;94279.59;;;18.01;62.45
5879;BME280;2965;42.640;23.370;2023-04-22T16:28:59;94284.88;;;18.01;63.18
5879;BME280;2965;42.640;23.370;2023-04-22T16:31:24;94277.03;;;18.06;64.03
5879;BME280;2965;42.640;23.370;2023-04-22T16:33:52;94293.53;;;17.96;63.83
5879;BME280;2965;42.640;23.370;2023-04-22T16:36:21;94289.72;;;18.04;63.32
5879;BME280;2965;42.640;23.370;2023-04-22T16:38:46;94289.91;;;18.14;63.94
5879;BME280;2965;42.640;23.370;2023-04-22T16:41:12;94294.66;;;18.40;63.13
5879;BME280;2965;42.640;23.370;2023-04-22T16:43:39;94300.16;;;18.51;63.59
5879;BME280;2965;42.640;23.370;2023-04-22T16:46:04;94297.94;;;18.19;64.63
5879;BME280;2965;42.640;23.370;2023-04-22T16:48:30;94291.56;;;18.32;64.48
5879;BME280;2965;42.640;23.370;2023-04-22T16:50:55;94296.16;;;18.36;64.46
5879;BME280;2965;42.640;23.370;2023-04-22T16:53:20;94302.22;;;18.20;65.12
5879;BME280;2965;42.640;23.370;2023-04-22T16:55:46;94299.34;;;18.10;66.20
5879;BME280;2965;42.640;23.370;2023-04-22T16:58:11;94306.31;;;17.64;68.48
5879;BME280;2965;42.640;23.370;2023-04-22T17:00:37;94303.91;;;17.62;69.84
5879;BME280;2965;42.640;23.370;2023-04-22T17:03:02;94317.16;;;17.62;72.05
5879;BME280;2965;42.640;23.370;2023-04-22T17:05:28;94313.34;;;17.23;74.91
5879;BME280;2965;42.640;23.370;2023-04-22T17:07:53;94315.13;;;16.87;77.46
5879;BME280;2965;42.640;23.370;2023-04-22T17:10:19;94321.78;;;16.90;78.04
5879;BME280;2965;42.640;23.370;2023-04-22T17:12:44;94322.69;;;16.54;81.33
5879;BME280;2965;42.640;23.370;2023-04-22T17:15:10;94330.50;;;16.49;83.84
5879;BME280;2965;42.640;23.370;2023-04-22T17:17:36;94337.84;;;16.28;85.75
5879;BME280;2965;42.640;23.370;2023-04-22T17:20:01;94340.53;;;15.92;88.55
5879;BME280;2965;42.640;23.370;2023-04-22T17:22:26;94343.25;;;15.85;89.86
5879;BME280;2965;42.640;23.370;2023-04-22T17:24:52;94353.28;;;15.95;89.52
5879;BME280;2965;42.640;23.370;2023-04-22T17:27:18;94358.97;;;15.73;87.35
5879;BME280;2965;42.640;23.370;2023-04-22T17:29:43;94361.13;;;15.58;86.61
5879;BME280;2965;42.640;23.370;2023-04-22T17:32:08;94363.88;;;15.45;86.56
5879;BME280;2965;42.640;23.370;2023-04-22T17:34:34;94370.13;;;15.25;87.30
5879;BME280;2965;42.640;23.370;2023-04-22T17:36:59;94371.19;;;15.18;87.90
5879;BME280;2965;42.640;23.370;2023-04-22T17:39:24;94370.34;;;14.99;86.80
5879;BME280;2965;42.640;23.370;2023-04-22T17:41:50;94372.09;;;15.05;87.19
5879;BME280;2965;42.640;23.370;2023-04-22T17:44:15;94377.53;;;14.78;87.44
5879;BME280;2965;42.640;23.370;2023-04-22T17:46:41;94385.72;;;14.70;89.36
5879;BME280;2965;42.640;23.370;2023-04-22T17:49:06;94383.31;;;14.62;90.46
5879;BME280;2965;42.640;23.370;2023-04-22T17:51:31;94390.66;;;14.47;92.04
5879;BME280;2965;42.640;23.370;2023-04-22T17:53:57;94387.50;;;14.31;93.71
5879;BME280;2965;42.640;23.370;2023-04-22T17:56:24;94394.59;;;14.24;95.45
5879;BME280;2965;42.640;23.370;2023-04-22T17:58:50;94396.03;;;14.20;96.58
5879;BME280;2965;42.640;23.370;2023-04-22T18:01:15;94407.38;;;14.07;98.57
5879;BME280;2965;42.640;23.370;2023-04-22T18:03:41;94403.41;;;13.92;100.00
5879;BME280;2965;42.640;23.370;2023-04-22T18:06:06;94399.38;;;13.82;100.00
5879;BME280;2965;42.640;23.370;2023-04-22T18:08:32;94405.47;;;13.70;100.00
5879;BME280;2965;42.640;23.370;2023-04-22T18:10:57;94415.19;;;13.69;100.00
5879;BME280;2965;42.640;23.370;2023-04-22T18:13:23;94410.53;;;13.58;100.00
5879;BME280;2965;42.640;23.370;2023-04-22T18:15:48;94414.00;;;13.38;100.00
5879;BME280;2965;42.640;23.370;2023-04-22T18:18:13;94422.28;;;13.42;100.00
5879;BME280;2965;42.640;23.370;2023-04-22T18:20:40;94428.53;;;13.48;100.00
5879;BME280;2965;42.640;23.370;2023-04-22T18:23:07;94425.91;;;13.48;100.00
5879;BME280;2965;42.640;23.370;2023-04-22T18:25:33;94426.94;;;13.33;100.00
